G.bellini — IKGF — position and weather

sailwx.info

Track history (hours):
 
Tides and Currents Weather Stations Pressure Air Temp Water Temp Dewpoint Dewpoint Depression Visibility Wind Speed Wind Dir Waves Ship Positions

G.bellini

Last reported at 2018-May-23 16:13 UTC. Time now 2018-May-24 10:13 UTC.
Position N 42°49' E 010°27'.

Length 72 m; draft 3.3 m.

Type: Ship. MMSI: 247041900.

Date/timePositionNaut miles runAvg speedWind from/ knotsBaromVisibWave heightAir tempDewpointWater temp
2018-May-23 16:13N 42°49' E 010°27'614.7
2018-May-23 15:48N 42°54' E 010°32'5 1.0
2018-May-23 10:31N 42°50' E 010°28'014.6
2018-May-23 10:30N 42°50' E 010°28'7 3.9
2018-May-23 08:44N 42°56' E 010°33'2 6.4
2018-May-23 08:30N 42°54' E 010°33'714.4
2018-May-23 08:01N 42°50' E 010°27'0 0.4
2018-May-23 07:02N 42°49' E 010°27'614.7
2018-May-23 06:37N 42°54' E 010°32'10 0.6
2018-May-22 13:40N 42°45' E 010°27'1113.7
2018-May-22 12:52N 42°38' E 010°15'4 1.1
2018-May-22 08:50N 42°37' E 010°09'714.8
2018-May-22 08:20N 42°40' E 010°18'714.6
2018-May-22 07:52N 42°43' E 010°27'7 0.3
2018-May-21 07:02N 42°50' E 010°27'114.6
2018-May-21 06:57N 42°51' E 010°28'3 0.2
2018-May-20 16:29N 42°53' E 010°31'5 5.4
2018-May-20 15:33N 42°49' E 010°27'014.7
2018-May-20 15:31N 42°49' E 010°27'714.4
2018-May-20 15:01N 42°55' E 010°33'1 0.8
2018-May-20 13:48N 42°56' E 010°33'311.0
2018-May-20 13:30N 42°53' E 010°32'5 1.7
2018-May-20 10:35N 42°49' E 010°27'0 0.0
2018-May-20 07:01N 42°49' E 010°27'014.9
2018-May-20 07:00N 42°49' E 010°27'714.5
2018-May-20 06:30N 42°55' E 010°33'1 1.2
2018-May-20 05:40N 42°56' E 010°34'9 0.7
2018-May-19 17:53N 42°49' E 010°27'514.5
2018-May-19 17:30N 42°53' E 010°31'3 3.7
2018-May-19 16:44N 42°56' E 010°33'3 9.1
2018-May-19 16:27N 42°53' E 010°32'6 6.3
2018-May-19 15:32N 42°49' E 010°27'014.4
2018-May-19 15:30N 42°49' E 010°27'714.6
2018-May-19 15:01N 42°55' E 010°33'1 0.7
2018-May-19 13:49N 42°56' E 010°33'8 2.5
2018-May-19 10:36N 42°49' E 010°27'114.9
2018-May-19 10:30N 42°50' E 010°28'7 3.8
2018-May-19 08:39N 42°56' E 010°34'9 5.3
2018-May-19 07:01N 42°49' E 010°27'014.9
2018-May-19 07:00N 42°49' E 010°27'8 6.1
2018-May-19 05:39N 42°56' E 010°34'412.1
2018-May-19 05:18N 42°52' E 010°31'5 0.4
2018-May-18 17:51N 42°49' E 010°26'514.8
2018-May-18 17:30N 42°53' E 010°31'4 4.5
2018-May-18 16:42N 42°56' E 010°34'713.1
2018-May-18 16:10N 42°50' E 010°28'2 2.6
2018-May-18 15:32N 42°49' E 010°27'014.8
2018-May-18 15:30N 42°49' E 010°27'714.9
2018-May-18 15:00N 42°55' E 010°33'1 0.7
2018-May-18 13:48N 42°56' E 010°33'8 2.6
2018-May-18 10:34N 42°49' E 010°27'115.1
2018-May-18 10:30N 42°50' E 010°28'7 4.0
2018-May-18 08:42N 42°56' E 010°33'3 9.1
2018-May-18 08:23N 42°53' E 010°32'1 0.6
2018-May-18 06:42N 42°53' E 010°31'314.8
2018-May-18 06:30N 42°55' E 010°34'1 0.9
2018-May-18 05:40N 42°56' E 010°33'8 0.2
2018-May-16 07:02N 42°49' E 010°27'614.8
2018-May-16 06:36N 42°54' E 010°32'24 1.1
2018-May-15 08:51N 42°37' E 010°09'  
Track history (hours):
 
Tides and Currents Weather Stations Pressure Air Temp Water Temp Dewpoint Dewpoint Depression Visibility Wind Speed Wind Dir Waves Ship Positions

G.bellini

Last reported at 2018-May-23 16:13 UTC. Time now 2018-May-24 10:13 UTC.
Position N 42°49' E 010°27'.

Length 72 m; draft 3.3 m.

Type: Ship. MMSI: 247041900.

Date/timePositionNaut miles runAvg speedWind from/ knotsBaromVisibWave heightAir tempDewpointWater temp
2018-May-23 16:13N 42°49' E 010°27'614.7
2018-May-23 15:48N 42°54' E 010°32'5 1.0
2018-May-23 10:31N 42°50' E 010°28'014.6
2018-May-23 10:30N 42°50' E 010°28'7 3.9
2018-May-23 08:44N 42°56' E 010°33'2 6.4
2018-May-23 08:30N 42°54' E 010°33'714.4
2018-May-23 08:01N 42°50' E 010°27'0 0.4
2018-May-23 07:02N 42°49' E 010°27'614.7
2018-May-23 06:37N 42°54' E 010°32'10 0.6
2018-May-22 13:40N 42°45' E 010°27'1113.7
2018-May-22 12:52N 42°38' E 010°15'4 1.1
2018-May-22 08:50N 42°37' E 010°09'714.8
2018-May-22 08:20N 42°40' E 010°18'714.6
2018-May-22 07:52N 42°43' E 010°27'7 0.3
2018-May-21 07:02N 42°50' E 010°27'114.6
2018-May-21 06:57N 42°51' E 010°28'3 0.2
2018-May-20 16:29N 42°53' E 010°31'5 5.4
2018-May-20 15:33N 42°49' E 010°27'014.7
2018-May-20 15:31N 42°49' E 010°27'714.4
2018-May-20 15:01N 42°55' E 010°33'1 0.8
2018-May-20 13:48N 42°56' E 010°33'311.0
2018-May-20 13:30N 42°53' E 010°32'5 1.7
2018-May-20 10:35N 42°49' E 010°27'0 0.0
2018-May-20 07:01N 42°49' E 010°27'014.9
2018-May-20 07:00N 42°49' E 010°27'714.5
2018-May-20 06:30N 42°55' E 010°33'1 1.2
2018-May-20 05:40N 42°56' E 010°34'9 0.7
2018-May-19 17:53N 42°49' E 010°27'514.5
2018-May-19 17:30N 42°53' E 010°31'3 3.7
2018-May-19 16:44N 42°56' E 010°33'3 9.1
2018-May-19 16:27N 42°53' E 010°32'6 6.3
2018-May-19 15:32N 42°49' E 010°27'014.4
2018-May-19 15:30N 42°49' E 010°27'714.6
2018-May-19 15:01N 42°55' E 010°33'1 0.7
2018-May-19 13:49N 42°56' E 010°33'8 2.5
2018-May-19 10:36N 42°49' E 010°27'114.9
2018-May-19 10:30N 42°50' E 010°28'7 3.8
2018-May-19 08:39N 42°56' E 010°34'9 5.3
2018-May-19 07:01N 42°49' E 010°27'014.9
2018-May-19 07:00N 42°49' E 010°27'8 6.1
2018-May-19 05:39N 42°56' E 010°34'412.1
2018-May-19 05:18N 42°52' E 010°31'5 0.4
2018-May-18 17:51N 42°49' E 010°26'514.8
2018-May-18 17:30N 42°53' E 010°31'4 4.5
2018-May-18 16:42N 42°56' E 010°34'713.1
2018-May-18 16:10N 42°50' E 010°28'2 2.6
2018-May-18 15:32N 42°49' E 010°27'014.8
2018-May-18 15:30N 42°49' E 010°27'714.9
2018-May-18 15:00N 42°55' E 010°33'1 0.7
2018-May-18 13:48N 42°56' E 010°33'8 2.6
2018-May-18 10:34N 42°49' E 010°27'115.1
2018-May-18 10:30N 42°50' E 010°28'7 4.0
2018-May-18 08:42N 42°56' E 010°33'3 9.1
2018-May-18 08:23N 42°53' E 010°32'1 0.6
2018-May-18 06:42N 42°53' E 010°31'314.8
2018-May-18 06:30N 42°55' E 010°34'1 0.9
2018-May-18 05:40N 42°56' E 010°33'8 0.2
2018-May-16 07:02N 42°49' E 010°27'614.8
2018-May-16 06:36N 42°54' E 010°32'24 1.1
2018-May-15 08:51N 42°37' E 010°09'  

Dump ship's entire track history